sensor_id;sensor_type;location;lat;lon;timestamp;pressure;altitude;pressure_sealevel;temperature;humidity
8653;BME280;4364;52.426;9.424;2023-04-25T00:01:55;100172.00;;;6.34;93.35
8653;BME280;4364;52.426;9.424;2023-04-25T00:04:23;100169.78;;;6.21;93.62
8653;BME280;4364;52.426;9.424;2023-04-25T00:06:50;100173.88;;;6.28;93.22
8653;BME280;4364;52.426;9.424;2023-04-25T00:09:16;100159.09;;;6.41;91.67
8653;BME280;4364;52.426;9.424;2023-04-25T00:11:42;100162.56;;;6.32;92.88
8653;BME280;4364;52.426;9.424;2023-04-25T00:14:09;100177.69;;;6.33;92.68
8653;BME280;4364;52.426;9.424;2023-04-25T00:16:36;100174.97;;;6.33;92.43
8653;BME280;4364;52.426;9.424;2023-04-25T00:19:03;100179.31;;;6.34;92.17
8653;BME280;4364;52.426;9.424;2023-04-25T00:21:30;100176.34;;;6.35;92.35
8653;BME280;4364;52.426;9.424;2023-04-25T00:23:58;100175.03;;;6.43;91.38
8653;BME280;4364;52.426;9.424;2023-04-25T00:26:24;100164.72;;;6.35;91.61
8653;BME280;4364;52.426;9.424;2023-04-25T00:28:51;100168.53;;;6.39;92.09
8653;BME280;4364;52.426;9.424;2023-04-25T00:31:18;100163.88;;;6.29;92.39
8653;BME280;4364;52.426;9.424;2023-04-25T00:33:44;100160.94;;;6.30;93.15
8653;BME280;4364;52.426;9.424;2023-04-25T00:36:11;100168.19;;;6.25;93.48
8653;BME280;4364;52.426;9.424;2023-04-25T00:38:38;100164.16;;;6.27;93.10
8653;BME280;4364;52.426;9.424;2023-04-25T00:41:07;100163.63;;;6.30;93.31
8653;BME280;4364;52.426;9.424;2023-04-25T00:43:33;100169.50;;;6.22;93.62
8653;BME280;4364;52.426;9.424;2023-04-25T00:46:00;100167.72;;;6.38;92.80
8653;BME280;4364;52.426;9.424;2023-04-25T00:48:27;100159.53;;;6.28;92.91
8653;BME280;4364;52.426;9.424;2023-04-25T00:50:57;100163.88;;;6.29;93.18
8653;BME280;4364;52.426;9.424;2023-04-25T00:53:27;100162.50;;;6.26;92.89
8653;BME280;4364;52.426;9.424;2023-04-25T00:55:54;100161.41;;;6.22;93.44
8653;BME280;4364;52.426;9.424;2023-04-25T00:58:21;100166.09;;;6.37;93.40
8653;BME280;4364;52.426;9.424;2023-04-25T01:00:50;100166.84;;;6.27;93.18
8653;BME280;4364;52.426;9.424;2023-04-25T01:03:18;100159.78;;;6.21;93.41
8653;BME280;4364;52.426;9.424;2023-04-25T01:05:49;100162.50;;;6.26;92.89
8653;BME280;4364;52.426;9.424;2023-04-25T01:08:16;100164.41;;;6.26;92.65
8653;BME280;4364;52.426;9.424;2023-04-25T01:10:43;100158.50;;;6.34;92.18
8653;BME280;4364;52.426;9.424;2023-04-25T01:13:09;100167.78;;;6.48;91.81
8653;BME280;4364;52.426;9.424;2023-04-25T01:15:36;100166.63;;;6.34;91.96
8653;BME280;4364;52.426;9.424;2023-04-25T01:18:04;100168.50;;;6.34;92.22
8653;BME280;4364;52.426;9.424;2023-04-25T01:20:32;100172.31;;;6.38;92.48
8653;BME280;4364;52.426;9.424;2023-04-25T01:22:59;100169.31;;;6.34;92.22
8653;BME280;4364;52.426;9.424;2023-04-25T01:25:26;100166.34;;;6.36;92.42
8653;BME280;4364;52.426;9.424;2023-04-25T01:27:55;100166.63;;;6.34;92.62
8653;BME280;4364;52.426;9.424;2023-04-25T01:30:22;100167.66;;;6.28;92.74
8653;BME280;4364;52.426;9.424;2023-04-25T01:32:48;100169.75;;;6.16;94.11
8653;BME280;4364;52.426;9.424;2023-04-25T01:35:15;100171.72;;;6.30;94.31
8653;BME280;4364;52.426;9.424;2023-04-25T01:37:42;100167.03;;;6.16;95.55
8653;BME280;4364;52.426;9.424;2023-04-25T01:40:12;100165.78;;;6.28;96.54
8653;BME280;4364;52.426;9.424;2023-04-25T01:42:42;100177.59;;;6.17;97.58
8653;BME280;4364;52.426;9.424;2023-04-25T01:45:10;100189.16;;;6.12;98.53
8653;BME280;4364;52.426;9.424;2023-04-25T01:47:38;100188.63;;;6.10;99.85
8653;BME280;4364;52.426;9.424;2023-04-25T01:50:07;100194.31;;;6.14;99.92
8653;BME280;4364;52.426;9.424;2023-04-25T01:52:35;100207.03;;;6.19;100.00
8653;BME280;4364;52.426;9.424;2023-04-25T01:55:02;100195.91;;;6.10;100.00
8653;BME280;4364;52.426;9.424;2023-04-25T01:57:31;100209.44;;;6.15;100.00
8653;BME280;4364;52.426;9.424;2023-04-25T02:00:01;100210.97;;;6.06;100.00
8653;BME280;4364;52.426;9.424;2023-04-25T02:02:38;100215.25;;;5.97;100.00
8653;BME280;4364;52.426;9.424;2023-04-25T02:05:13;100208.09;;;5.85;100.00
8653;BME280;4364;52.426;9.424;2023-04-25T02:07:41;100213.03;;;5.93;98.84
8653;BME280;4364;52.426;9.424;2023-04-25T02:10:08;100221.84;;;5.84;96.65
8653;BME280;4364;52.426;9.424;2023-04-25T02:12:43;100221.91;;;5.94;96.76
8653;BME280;4364;52.426;9.424;2023-04-25T02:15:18;100225.91;;;5.86;96.24
8653;BME280;4364;52.426;9.424;2023-04-25T02:17:51;100225.13;;;5.91;95.83
8653;BME280;4364;52.426;9.424;2023-04-25T02:20:22;100219.84;;;6.01;96.22
8653;BME280;4364;52.426;9.424;2023-04-25T02:22:49;100226.63;;;6.04;96.02
8653;BME280;4364;52.426;9.424;2023-04-25T02:25:17;100229.06;;;6.05;96.14
8653;BME280;4364;52.426;9.424;2023-04-25T02:27:45;100231.03;;;5.88;97.40
8653;BME280;4364;52.426;9.424;2023-04-25T02:30:13;100229.31;;;6.04;96.07
8653;BME280;4364;52.426;9.424;2023-04-25T02:32:39;100229.72;;;5.90;97.16
8653;BME280;4364;52.426;9.424;2023-04-25T02:35:08;100235.13;;;5.90;96.87
8653;BME280;4364;52.426;9.424;2023-04-25T02:37:36;100232.69;;;5.89;97.44
8653;BME280;4364;52.426;9.424;2023-04-25T02:40:03;100235.78;;;6.03;96.34
8653;BME280;4364;52.426;9.424;2023-04-25T02:42:30;100234.94;;;5.97;96.70
8653;BME280;4364;52.426;9.424;2023-04-25T02:44:57;100227.38;;;5.99;97.82
8653;BME280;4364;52.426;9.424;2023-04-25T02:47:25;100239.56;;;6.02;97.50
8653;BME280;4364;52.426;9.424;2023-04-25T02:49:52;100243.88;;;6.03;98.29
8653;BME280;4364;52.426;9.424;2023-04-25T02:52:19;100241.13;;;5.98;99.08
8653;BME280;4364;52.426;9.424;2023-04-25T02:54:52;100245.50;;;6.04;98.88
8653;BME280;4364;52.426;9.424;2023-04-25T02:57:19;100242.31;;;6.07;98.73
8653;BME280;4364;52.426;9.424;2023-04-25T02:59:45;100241.75;;;6.05;98.90
8653;BME280;4364;52.426;9.424;2023-04-25T03:02:12;100237.63;;;5.97;98.73
8653;BME280;4364;52.426;9.424;2023-04-25T03:04:39;100245.97;;;5.96;99.79
8653;BME280;4364;52.426;9.424;2023-04-25T03:07:06;100246.97;;;5.89;99.83
8653;BME280;4364;52.426;9.424;2023-04-25T03:09:32;100245.38;;;5.88;99.99
8653;BME280;4364;52.426;9.424;2023-04-25T03:11:59;100244.28;;;5.89;100.00
8653;BME280;4364;52.426;9.424;2023-04-25T03:14:27;100253.47;;;5.88;99.90
8653;BME280;4364;52.426;9.424;2023-04-25T03:16:54;100263.97;;;5.85;98.61
8653;BME280;4364;52.426;9.424;2023-04-25T03:19:21;100260.41;;;5.84;98.35
8653;BME280;4364;52.426;9.424;2023-04-25T03:21:47;100266.13;;;5.88;98.10
8653;BME280;4364;52.426;9.424;2023-04-25T03:24:14;100271.22;;;5.84;98.21
8653;BME280;4364;52.426;9.424;2023-04-25T03:26:41;100261.50;;;5.83;96.85
8653;BME280;4364;52.426;9.424;2023-04-25T03:29:08;100268.44;;;5.74;97.49
8653;BME280;4364;52.426;9.424;2023-04-25T03:31:36;100270.03;;;5.70;97.25
8653;BME280;4364;52.426;9.424;2023-04-25T03:34:02;100269.03;;;5.81;96.85
8653;BME280;4364;52.426;9.424;2023-04-25T03:36:29;100279.78;;;5.76;97.32
8653;BME280;4364;52.426;9.424;2023-04-25T03:38:55;100280.28;;;5.73;96.83
8653;BME280;4364;52.426;9.424;2023-04-25T03:41:23;100282.78;;;5.80;96.46
8653;BME280;4364;52.426;9.424;2023-04-25T03:44:01;100281.38;;;5.72;95.48
8653;BME280;4364;52.426;9.424;2023-04-25T03:46:27;100285.06;;;5.66;95.56
8653;BME280;4364;52.426;9.424;2023-04-25T03:48:54;100281.63;;;5.70;94.21
8653;BME280;4364;52.426;9.424;2023-04-25T03:51:27;100281.63;;;5.70;93.90
8653;BME280;4364;52.426;9.424;2023-04-25T03:53:54;100289.97;;;5.69;93.10
8653;BME280;4364;52.426;9.424;2023-04-25T03:56:30;100287.00;;;5.70;92.35
8653;BME280;4364;52.426;9.424;2023-04-25T03:59:04;100285.41;;;5.74;92.72
8653;BME280;4364;52.426;9.424;2023-04-25T04:01:31;100288.38;;;5.73;92.46
8653;BME280;4364;52.426;9.424;2023-04-25T04:03:57;100291.34;;;5.71;92.05
8653;BME280;4364;52.426;9.424;2023-04-25T04:06:26;100294.03;;;5.71;91.66
8653;BME280;4364;52.426;9.424;2023-04-25T04:09:01;100302.94;;;5.72;91.42
8653;BME280;4364;52.426;9.424;2023-04-25T04:11:30;100308.09;;;5.73;92.02
8653;BME280;4364;52.426;9.424;2023-04-25T04:13:57;100304.50;;;5.68;90.45
8653;BME280;4364;52.426;9.424;2023-04-25T04:16:24;100311.75;;;5.62;91.02
8653;BME280;4364;52.426;9.424;2023-04-25T04:18:51;100316.19;;;5.73;91.25
8653;BME280;4364;52.426;9.424;2023-04-25T04:21:18;100317.13;;;5.62;90.59
8653;BME280;4364;52.426;9.424;2023-04-25T04:23:44;100324.22;;;5.68;91.04
8653;BME280;4364;52.426;9.424;2023-04-25T04:26:11;100318.78;;;5.63;90.88
8653;BME280;4364;52.426;9.424;2023-04-25T04:28:56;100322.22;;;5.59;91.41
8653;BME280;4364;52.426;9.424;2023-04-25T04:31:39;100319.63;;;5.69;90.88
8653;BME280;4364;52.426;9.424;2023-04-25T04:34:06;100318.78;;;5.63;90.71
8653;BME280;4364;52.426;9.424;2023-04-25T04:36:34;100327.19;;;5.67;90.85
8653;BME280;4364;52.426;9.424;2023-04-25T04:39:00;100332.31;;;5.68;89.37
8653;BME280;4364;52.426;9.424;2023-04-25T04:41:34;100330.19;;;5.70;89.99
8653;BME280;4364;52.426;9.424;2023-04-25T04:44:14;100339.63;;;5.73;88.83
8653;BME280;4364;52.426;9.424;2023-04-25T04:46:45;100343.81;;;5.59;88.64
8653;BME280;4364;52.426;9.424;2023-04-25T04:49:45;100335.16;;;5.56;87.20
8653;BME280;4364;52.426;9.424;2023-04-25T04:52:28;100341.66;;;5.61;86.65
8653;BME280;4364;52.426;9.424;2023-04-25T04:55:03;100343.25;;;5.56;85.66
8653;BME280;4364;52.426;9.424;2023-04-25T04:57:39;100354.59;;;5.59;86.32
8653;BME280;4364;52.426;9.424;2023-04-25T05:00:41;100358.72;;;5.66;85.75
8653;BME280;4364;52.426;9.424;2023-04-25T05:03:27;100353.00;;;5.63;85.51
8653;BME280;4364;52.426;9.424;2023-04-25T05:06:13;100361.16;;;5.68;86.55
8653;BME280;4364;52.426;9.424;2023-04-25T05:08:51;100353.72;;;5.75;85.92
8653;BME280;4364;52.426;9.424;2023-04-25T05:11:35;100364.03;;;5.61;86.72
8653;BME280;4364;52.426;9.424;2023-04-25T05:14:22;100372.47;;;5.65;86.59
8653;BME280;4364;52.426;9.424;2023-04-25T05:17:25;100369.84;;;5.70;85.45
8653;BME280;4364;52.426;9.424;2023-04-25T05:20:02;100369.25;;;5.68;86.19
8653;BME280;4364;52.426;9.424;2023-04-25T05:22:42;100376.59;;;5.72;85.63
8653;BME280;4364;52.426;9.424;2023-04-25T05:25:17;100381.25;;;5.77;85.83
8653;BME280;4364;52.426;9.424;2023-04-25T05:28:08;100390.66;;;5.74;85.80
8653;BME280;4364;52.426;9.424;2023-04-25T05:30:38;100393.69;;;5.78;85.54
8653;BME280;4364;52.426;9.424;2023-04-25T05:33:16;100397.38;;;5.72;84.31
8653;BME280;4364;52.426;9.424;2023-04-25T05:35:44;100392.53;;;5.74;84.48
8653;BME280;4364;52.426;9.424;2023-04-25T05:38:11;100388.09;;;5.85;84.35
8653;BME280;4364;52.426;9.424;2023-04-25T05:41:03;100397.78;;;5.86;83.70
8653;BME280;4364;52.426;9.424;2023-04-25T05:43:46;100398.59;;;5.86;83.50
8653;BME280;4364;52.426;9.424;2023-04-25T05:46:25;100404.72;;;5.99;83.25
8653;BME280;4364;52.426;9.424;2023-04-25T05:49:15;100402.69;;;5.89;83.10
8653;BME280;4364;52.426;9.424;2023-04-25T05:52:03;100413.69;;;5.82;83.89
8653;BME280;4364;52.426;9.424;2023-04-25T05:54:48;100411.53;;;5.84;84.99
8653;BME280;4364;52.426;9.424;2023-04-25T05:57:24;100410.22;;;5.87;84.22
8653;BME280;4364;52.426;9.424;2023-04-25T05:59:53;100420.09;;;5.98;82.40
8653;BME280;4364;52.426;9.424;2023-04-25T06:02:21;100425.22;;;6.00;82.95
8653;BME280;4364;52.426;9.424;2023-04-25T06:04:50;100428.91;;;6.16;82.35
8653;BME280;4364;52.426;9.424;2023-04-25T06:07:18;100430.03;;;6.20;82.25
8653;BME280;4364;52.426;9.424;2023-04-25T06:09:45;100435.81;;;6.28;81.67
8653;BME280;4364;52.426;9.424;2023-04-25T06:12:11;100431.94;;;6.19;81.99
8653;BME280;4364;52.426;9.424;2023-04-25T06:14:38;100431.66;;;6.21;81.93
8653;BME280;4364;52.426;9.424;2023-04-25T06:17:05;100444.66;;;6.24;81.98
8653;BME280;4364;52.426;9.424;2023-04-25T06:19:35;100448.59;;;6.38;81.43
8653;BME280;4364;52.426;9.424;2023-04-25T06:22:02;100446.97;;;6.37;80.22
8653;BME280;4364;52.426;9.424;2023-04-25T06:24:30;100433.22;;;6.39;80.82
8653;BME280;4364;52.426;9.424;2023-04-25T06:26:56;100449.31;;;6.28;81.76
8653;BME280;4364;52.426;9.424;2023-04-25T06:29:23;100439.66;;;6.38;80.90
8653;BME280;4364;52.426;9.424;2023-04-25T06:31:50;100451.72;;;6.25;80.74
8653;BME280;4364;52.426;9.424;2023-04-25T06:34:17;100444.88;;;6.17;81.19
8653;BME280;4364;52.426;9.424;2023-04-25T06:36:44;100439.28;;;6.24;81.89
8653;BME280;4364;52.426;9.424;2023-04-25T06:39:14;100450.72;;;6.36;80.48
8653;BME280;4364;52.426;9.424;2023-04-25T06:41:40;100449.91;;;6.36;78.88
8653;BME280;4364;52.426;9.424;2023-04-25T06:44:14;100451.50;;;6.32;79.23
8653;BME280;4364;52.426;9.424;2023-04-25T06:46:52;100454.50;;;6.35;78.02
8653;BME280;4364;52.426;9.424;2023-04-25T06:49:18;100463.69;;;6.34;79.57
8653;BME280;4364;52.426;9.424;2023-04-25T06:51:45;100456.72;;;6.38;79.26
8653;BME280;4364;52.426;9.424;2023-04-25T06:54:13;100456.97;;;6.37;77.21
8653;BME280;4364;52.426;9.424;2023-04-25T06:56:51;100463.06;;;6.27;77.63
8653;BME280;4364;52.426;9.424;2023-04-25T06:59:18;100465.88;;;6.37;77.07
8653;BME280;4364;52.426;9.424;2023-04-25T07:01:45;100469.53;;;6.26;75.46
8653;BME280;4364;52.426;9.424;2023-04-25T07:04:19;100466.03;;;6.25;75.99
8653;BME280;4364;52.426;9.424;2023-04-25T07:06:53;100470.00;;;6.45;75.96
8653;BME280;4364;52.426;9.424;2023-04-25T07:09:29;100467.75;;;6.64;76.00
8653;BME280;4364;52.426;9.424;2023-04-25T07:11:58;100474.03;;;6.42;75.22
8653;BME280;4364;52.426;9.424;2023-04-25T07:14:25;100471.63;;;6.46;75.22
8653;BME280;4364;52.426;9.424;2023-04-25T07:16:53;100477.63;;;6.53;75.72
8653;BME280;4364;52.426;9.424;2023-04-25T07:19:19;100475.13;;;6.74;75.40
8653;BME280;4364;52.426;9.424;2023-04-25T07:21:46;100477.09;;;6.78;75.05
8653;BME280;4364;52.426;9.424;2023-04-25T07:24:13;100470.25;;;6.71;72.64
8653;BME280;4364;52.426;9.424;2023-04-25T07:26:44;100480.50;;;6.68;73.42
8653;BME280;4364;52.426;9.424;2023-04-25T07:29:21;100482.31;;;6.63;73.56
8653;BME280;4364;52.426;9.424;2023-04-25T07:31:47;100484.41;;;6.56;72.97
8653;BME280;4364;52.426;9.424;2023-04-25T07:34:14;100487.69;;;6.85;72.02
8653;BME280;4364;52.426;9.424;2023-04-25T07:36:41;100501.63;;;6.72;72.39
8653;BME280;4364;52.426;9.424;2023-04-25T07:39:07;100496.00;;;6.78;69.51
8653;BME280;4364;52.426;9.424;2023-04-25T07:41:35;100496.28;;;6.82;71.00
8653;BME280;4364;52.426;9.424;2023-04-25T07:44:02;100496.72;;;7.01;70.95
8653;BME280;4364;52.426;9.424;2023-04-25T07:46:30;100505.97;;;7.05;70.02
8653;BME280;4364;52.426;9.424;2023-04-25T07:48:57;100514.91;;;7.11;68.83
8653;BME280;4364;52.426;9.424;2023-04-25T07:51:24;100515.81;;;6.89;68.06
8653;BME280;4364;52.426;9.424;2023-04-25T07:53:52;100506.09;;;6.93;68.45
8653;BME280;4364;52.426;9.424;2023-04-25T07:56:20;100514.22;;;6.93;66.56
8653;BME280;4364;52.426;9.424;2023-04-25T07:58:47;100517.03;;;7.03;66.47
8653;BME280;4364;52.426;9.424;2023-04-25T08:01:17;100526.88;;;7.20;65.17
8653;BME280;4364;52.426;9.424;2023-04-25T08:03:51;100523.94;;;7.27;65.64
8653;BME280;4364;52.426;9.424;2023-04-25T08:06:29;100519.16;;;7.34;63.99
8653;BME280;4364;52.426;9.424;2023-04-25T08:09:11;100523.03;;;7.48;62.22
8653;BME280;4364;52.426;9.424;2023-04-25T08:11:40;100524.94;;;7.53;61.53
8653;BME280;4364;52.426;9.424;2023-04-25T08:14:11;100524.66;;;7.49;61.46
8653;BME280;4364;52.426;9.424;2023-04-25T08:16:39;100526.13;;;7.67;60.58
8653;BME280;4364;52.426;9.424;2023-04-25T08:19:06;100535.38;;;7.76;60.88
8653;BME280;4364;52.426;9.424;2023-04-25T08:21:33;100533.06;;;7.95;60.78
8653;BME280;4364;52.426;9.424;2023-04-25T08:24:03;100539.59;;;8.05;60.75
8653;BME280;4364;52.426;9.424;2023-04-25T08:26:34;100537.16;;;8.08;59.08
8653;BME280;4364;52.426;9.424;2023-04-25T08:29:02;100543.16;;;8.10;58.33
8653;BME280;4364;52.426;9.424;2023-04-25T08:31:31;100545.19;;;7.88;59.23
8653;BME280;4364;52.426;9.424;2023-04-25T08:34:01;100544.34;;;7.82;59.74
8653;BME280;4364;52.426;9.424;2023-04-25T08:36:34;100551.19;;;7.95;60.22
8653;BME280;4364;52.426;9.424;2023-04-25T08:39:28;100559.47;;;7.78;60.14
8653;BME280;4364;52.426;9.424;2023-04-25T08:42:27;100560.88;;;7.86;60.42
8653;BME280;4364;52.426;9.424;2023-04-25T08:44:55;100567.38;;;7.85;59.16
8653;BME280;4364;52.426;9.424;2023-04-25T08:47:27;100560.56;;;7.77;57.84
8653;BME280;4364;52.426;9.424;2023-04-25T08:49:56;100576.13;;;7.59;57.44
8653;BME280;4364;52.426;9.424;2023-04-25T08:52:27;100570.00;;;7.69;56.25
8653;BME280;4364;52.426;9.424;2023-04-25T08:54:55;100571.06;;;7.68;57.02
8653;BME280;4364;52.426;9.424;2023-04-25T08:57:22;100569.81;;;7.86;57.09
8653;BME280;4364;52.426;9.424;2023-04-25T08:59:51;100575.69;;;8.21;57.43
8653;BME280;4364;52.426;9.424;2023-04-25T09:02:18;100576.34;;;8.43;57.74
8653;BME280;4364;52.426;9.424;2023-04-25T09:04:49;100576.97;;;8.71;57.74
8653;BME280;4364;52.426;9.424;2023-04-25T09:07:15;100585.59;;;8.47;57.22
8653;BME280;4364;52.426;9.424;2023-04-25T09:09:45;100590.78;;;8.64;57.13
8653;BME280;4364;52.426;9.424;2023-04-25T09:12:14;100592.09;;;8.51;54.44
8653;BME280;4364;52.426;9.424;2023-04-25T09:14:40;100592.09;;;8.57;50.75
8653;BME280;4364;52.426;9.424;2023-04-25T09:17:17;100590.03;;;8.84;50.84
8653;BME280;4364;52.426;9.424;2023-04-25T09:19:50;100596.00;;;9.02;52.37
8653;BME280;4364;52.426;9.424;2023-04-25T09:22:36;100607.69;;;8.92;52.06
8653;BME280;4364;52.426;9.424;2023-04-25T09:25:08;100604.16;;;9.07;51.59
8653;BME280;4364;52.426;9.424;2023-04-25T09:27:35;100601.19;;;9.14;50.22
8653;BME280;4364;52.426;9.424;2023-04-25T09:30:15;100597.97;;;9.37;50.82
8653;BME280;4364;52.426;9.424;2023-04-25T09:32:57;100600.63;;;9.89;51.80
8653;BME280;4364;52.426;9.424;2023-04-25T09:35:25;100600.69;;;9.37;49.60
8653;BME280;4364;52.426;9.424;2023-04-25T09:37:53;100606.66;;;9.44;50.52
8653;BME280;4364;52.426;9.424;2023-04-25T09:40:43;100616.66;;;9.28;48.82
8653;BME280;4364;52.426;9.424;2023-04-25T09:43:22;100625.31;;;9.10;50.89
8653;BME280;4364;52.426;9.424;2023-04-25T09:45:50;100604.97;;;8.97;50.59
8653;BME280;4364;52.426;9.424;2023-04-25T09:48:19;100625.81;;;8.81;52.20
8653;BME280;4364;52.426;9.424;2023-04-25T09:51:11;100617.91;;;8.69;52.12
8653;BME280;4364;52.426;9.424;2023-04-25T09:53:44;100620.19;;;8.40;50.66
8653;BME280;4364;52.426;9.424;2023-04-25T09:56:22;100631.00;;;8.35;52.76
8653;BME280;4364;52.426;9.424;2023-04-25T09:58:50;100634.28;;;8.32;55.11
8653;BME280;4364;52.426;9.424;2023-04-25T10:01:20;100643.97;;;8.23;57.39
8653;BME280;4364;52.426;9.424;2023-04-25T10:04:10;100651.75;;;8.09;56.78
8653;BME280;4364;52.426;9.424;2023-04-25T10:06:53;100646.81;;;8.01;55.91
8653;BME280;4364;52.426;9.424;2023-04-25T10:09:24;100650.25;;;7.91;56.23
8653;BME280;4364;52.426;9.424;2023-04-25T10:11:52;100653.03;;;8.01;56.40
8653;BME280;4364;52.426;9.424;2023-04-25T10:14:19;100663.72;;;8.23;56.43
8653;BME280;4364;52.426;9.424;2023-04-25T10:16:46;100650.38;;;8.11;56.04
8653;BME280;4364;52.426;9.424;2023-04-25T10:19:13;100655.84;;;8.16;57.24
8653;BME280;4364;52.426;9.424;2023-04-25T10:21:50;100661.06;;;8.33;56.14
8653;BME280;4364;52.426;9.424;2023-04-25T10:24:17;100655.84;;;8.64;55.58
8653;BME280;4364;52.426;9.424;2023-04-25T10:26:46;100658.28;;;8.66;54.63
8653;BME280;4364;52.426;9.424;2023-04-25T10:29:21;100664.72;;;8.49;53.66
8653;BME280;4364;52.426;9.424;2023-04-25T10:31:48;100651.97;;;8.45;54.12
8653;BME280;4364;52.426;9.424;2023-04-25T10:34:16;100669.72;;;8.25;53.56
8653;BME280;4364;52.426;9.424;2023-04-25T10:36:49;100663.53;;;7.92;55.24
8653;BME280;4364;52.426;9.424;2023-04-25T10:39:22;100655.69;;;7.91;56.13
8653;BME280;4364;52.426;9.424;2023-04-25T10:41:57;100665.16;;;7.93;56.80
8653;BME280;4364;52.426;9.424;2023-04-25T10:44:28;100668.84;;;8.14;56.52
8653;BME280;4364;52.426;9.424;2023-04-25T10:46:56;100658.56;;;8.69;56.31
8653;BME280;4364;52.426;9.424;2023-04-25T10:49:37;100653.31;;;9.31;54.36
8653;BME280;4364;52.426;9.424;2023-04-25T10:54:55;100647.59;;;9.99;50.72
8653;BME280;4364;52.426;9.424;2023-04-25T10:57:41;100660.94;;;9.44;51.42
8653;BME280;4364;52.426;9.424;2023-04-25T11:00:11;100664.97;;;9.21;52.73
8653;BME280;4364;52.426;9.424;2023-04-25T11:02:46;100677.44;;;9.17;53.74
8653;BME280;4364;52.426;9.424;2023-04-25T11:07:55;100673.78;;;8.76;54.26
8653;BME280;4364;52.426;9.424;2023-04-25T11:10:34;100681.22;;;8.43;54.53
8653;BME280;4364;52.426;9.424;2023-04-25T11:13:04;100690.03;;;8.28;55.94
8653;BME280;4364;52.426;9.424;2023-04-25T11:15:31;100686.66;;;8.05;57.62
8653;BME280;4364;52.426;9.424;2023-04-25T11:17:58;100689.59;;;7.98;59.21
8653;BME280;4364;52.426;9.424;2023-04-25T11:20:25;100693.63;;;7.96;59.76
8653;BME280;4364;52.426;9.424;2023-04-25T11:22:57;100711.69;;;7.85;60.86
8653;BME280;4364;52.426;9.424;2023-04-25T11:25:25;100709.75;;;7.81;61.87
8653;BME280;4364;52.426;9.424;2023-04-25T11:27:55;100703.06;;;7.93;60.69
8653;BME280;4364;52.426;9.424;2023-04-25T11:30:25;100700.91;;;7.90;59.31
8653;BME280;4364;52.426;9.424;2023-04-25T11:32:52;100695.31;;;7.70;59.53
8653;BME280;4364;52.426;9.424;2023-04-25T11:35:19;100699.09;;;7.69;61.03
8653;BME280;4364;52.426;9.424;2023-04-25T11:37:47;100701.38;;;7.82;60.18
8653;BME280;4364;52.426;9.424;2023-04-25T11:40:14;100699.53;;;7.93;59.65
8653;BME280;4364;52.426;9.424;2023-04-25T11:42:45;100699.63;;;8.03;61.24
8653;BME280;4364;52.426;9.424;2023-04-25T11:45:12;100710.84;;;8.17;58.50
8653;BME280;4364;52.426;9.424;2023-04-25T11:47:39;100710.00;;;8.16;58.35
8653;BME280;4364;52.426;9.424;2023-04-25T11:50:07;100724.16;;;8.24;58.52
8653;BME280;4364;52.426;9.424;2023-04-25T11:52:42;100719.44;;;8.46;57.32
8653;BME280;4364;52.426;9.424;2023-04-25T11:55:19;100729.34;;;8.73;52.69
8653;BME280;4364;52.426;9.424;2023-04-25T11:57:48;100720.75;;;8.97;50.96
8653;BME280;4364;52.426;9.424;2023-04-25T12:00:20;100722.22;;;9.25;47.91
8653;BME280;4364;52.426;9.424;2023-04-25T12:02:51;100720.88;;;9.33;47.60
8653;BME280;4364;52.426;9.424;2023-04-25T12:05:18;100721.72;;;9.49;47.18
8653;BME280;4364;52.426;9.424;2023-04-25T12:07:58;100717.72;;;9.92;47.44
8653;BME280;4364;52.426;9.424;2023-04-25T12:10:37;100722.84;;;9.73;46.68
8653;BME280;4364;52.426;9.424;2023-04-25T12:13:21;100732.00;;;9.31;49.36
8653;BME280;4364;52.426;9.424;2023-04-25T12:15:48;100741.56;;;8.70;53.20
8653;BME280;4364;52.426;9.424;2023-04-25T12:18:19;100753.38;;;8.22;55.35
8653;BME280;4364;52.426;9.424;2023-04-25T12:20:46;100753.41;;;7.89;56.25
8653;BME280;4364;52.426;9.424;2023-04-25T12:23:12;100770.78;;;7.66;58.19
8653;BME280;4364;52.426;9.424;2023-04-25T12:25:41;100765.38;;;7.39;58.92
8653;BME280;4364;52.426;9.424;2023-04-25T12:28:19;100754.00;;;7.37;59.56
8653;BME280;4364;52.426;9.424;2023-04-25T12:31:05;100756.06;;;7.30;61.41
8653;BME280;4364;52.426;9.424;2023-04-25T12:33:33;100767.25;;;7.16;63.15
8653;BME280;4364;52.426;9.424;2023-04-25T12:36:01;100769.03;;;7.05;65.23
8653;BME280;4364;52.426;9.424;2023-04-25T12:38:36;100757.13;;;6.84;65.95
8653;BME280;4364;52.426;9.424;2023-04-25T12:41:02;100770.28;;;6.76;66.13
8653;BME280;4364;52.426;9.424;2023-04-25T12:43:29;100765.34;;;6.51;66.29
8653;BME280;4364;52.426;9.424;2023-04-25T12:45:56;100760.09;;;6.44;67.70
8653;BME280;4364;52.426;9.424;2023-04-25T12:48:23;100766.66;;;6.31;69.82
8653;BME280;4364;52.426;9.424;2023-04-25T12:50:50;100774.50;;;6.33;72.34
8653;BME280;4364;52.426;9.424;2023-04-25T12:53:19;100770.91;;;6.27;73.26
8653;BME280;4364;52.426;9.424;2023-04-25T12:55:47;100774.19;;;6.12;75.78
8653;BME280;4364;52.426;9.424;2023-04-25T12:58:15;100758.97;;;6.06;77.20
8653;BME280;4364;52.426;9.424;2023-04-25T13:00:42;100759.63;;;6.13;78.18
8653;BME280;4364;52.426;9.424;2023-04-25T13:03:09;100756.00;;;5.90;80.41
8653;BME280;4364;52.426;9.424;2023-04-25T13:05:38;100756.44;;;6.16;80.86
8653;BME280;4364;52.426;9.424;2023-04-25T13:08:04;100765.28;;;6.28;81.04
8653;BME280;4364;52.426;9.424;2023-04-25T13:10:31;100749.06;;;6.67;80.00
8653;BME280;4364;52.426;9.424;2023-04-25T13:12:57;100753.69;;;6.89;79.59
8653;BME280;4364;52.426;9.424;2023-04-25T13:15:24;100753.47;;;7.40;79.25
8653;BME280;4364;52.426;9.424;2023-04-25T13:17:51;100741.25;;;7.92;74.02
8653;BME280;4364;52.426;9.424;2023-04-25T13:20:17;100741.56;;;8.33;72.08
8653;BME280;4364;52.426;9.424;2023-04-25T13:22:45;100743.72;;;8.74;69.24
8653;BME280;4364;52.426;9.424;2023-04-25T13:25:12;100738.44;;;9.09;66.69
8653;BME280;4364;52.426;9.424;2023-04-25T13:27:38;100747.41;;;9.15;63.06
8653;BME280;4364;52.426;9.424;2023-04-25T13:30:07;100747.72;;;9.19;62.86
8653;BME280;4364;52.426;9.424;2023-04-25T13:32:34;100762.53;;;8.96;62.86
8653;BME280;4364;52.426;9.424;2023-04-25T13:35:06;100765.63;;;8.67;65.04
8653;BME280;4364;52.426;9.424;2023-04-25T13:37:36;100770.34;;;8.07;66.66
8653;BME280;4364;52.426;9.424;2023-04-25T13:40:04;100773.75;;;7.65;68.77
8653;BME280;4364;52.426;9.424;2023-04-25T13:42:32;100773.38;;;7.56;70.14
8653;BME280;4364;52.426;9.424;2023-04-25T13:44:58;100762.91;;;7.37;70.01
8653;BME280;4364;52.426;9.424;2023-04-25T13:47:26;100765.78;;;7.53;71.93